sensor_id;sensor_type;location;lat;lon;timestamp;temperature;humidity
5940;DHT22;2995;-31.998;115.906;2023-06-19T00:02:02;7.10;99.90
5940;DHT22;2995;-31.998;115.906;2023-06-19T00:04:34;7.20;99.90
5940;DHT22;2995;-31.998;115.906;2023-06-19T00:07:05;7.30;99.90
5940;DHT22;2995;-31.998;115.906;2023-06-19T00:09:37;7.40;99.90
5940;DHT22;2995;-31.998;115.906;2023-06-19T00:12:10;7.60;99.90
5940;DHT22;2995;-31.998;115.906;2023-06-19T00:14:41;7.60;99.90
5940;DHT22;2995;-31.998;115.906;2023-06-19T00:17:13;7.80;99.90
5940;DHT22;2995;-31.998;115.906;2023-06-19T00:19:44;7.90;99.90
5940;DHT22;2995;-31.998;115.906;2023-06-19T00:22:17;8.00;99.90
5940;DHT22;2995;-31.998;115.906;2023-06-19T00:24:48;8.00;99.90
5940;DHT22;2995;-31.998;115.906;2023-06-19T00:27:21;8.10;99.90
5940;DHT22;2995;-31.998;115.906;2023-06-19T00:29:53;8.30;99.90
5940;DHT22;2995;-31.998;115.906;2023-06-19T00:32:29;8.40;99.90
5940;DHT22;2995;-31.998;115.906;2023-06-19T00:35:14;8.50;99.90
5940;DHT22;2995;-31.998;115.906;2023-06-19T00:37:46;8.80;99.90
5940;DHT22;2995;-31.998;115.906;2023-06-19T00:40:27;8.90;99.90
5940;DHT22;2995;-31.998;115.906;2023-06-19T00:43:01;8.90;99.90
5940;DHT22;2995;-31.998;115.906;2023-06-19T00:45:32;9.00;99.90
5940;DHT22;2995;-31.998;115.906;2023-06-19T00:48:04;9.10;99.90
5940;DHT22;2995;-31.998;115.906;2023-06-19T00:50:35;9.30;99.90
5940;DHT22;2995;-31.998;115.906;2023-06-19T00:53:07;9.40;99.90
5940;DHT22;2995;-31.998;115.906;2023-06-19T00:55:39;9.60;99.90
5940;DHT22;2995;-31.998;115.906;2023-06-19T00:58:13;9.70;99.90
5940;DHT22;2995;-31.998;115.906;2023-06-19T01:00:45;9.70;99.90
5940;DHT22;2995;-31.998;115.906;2023-06-19T01:03:16;9.70;99.90
5940;DHT22;2995;-31.998;115.906;2023-06-19T01:05:48;9.70;99.90
5940;DHT22;2995;-31.998;115.906;2023-06-19T01:08:42;9.90;99.90
5940;DHT22;2995;-31.998;115.906;2023-06-19T01:11:20;9.90;99.90
5940;DHT22;2995;-31.998;115.906;2023-06-19T01:13:58;9.80;99.90
5940;DHT22;2995;-31.998;115.906;2023-06-19T01:16:32;9.80;99.90
5940;DHT22;2995;-31.998;115.906;2023-06-19T01:19:09;9.70;99.90
5940;DHT22;2995;-31.998;115.906;2023-06-19T01:21:45;9.80;99.90
5940;DHT22;2995;-31.998;115.906;2023-06-19T01:24:22;10.00;99.90
5940;DHT22;2995;-31.998;115.906;2023-06-19T01:26:56;10.20;99.90
5940;DHT22;2995;-31.998;115.906;2023-06-19T01:29:29;10.30;99.90
5940;DHT22;2995;-31.998;115.906;2023-06-19T01:32:04;10.40;99.90
5940;DHT22;2995;-31.998;115.906;2023-06-19T01:34:38;10.60;99.90
5940;DHT22;2995;-31.998;115.906;2023-06-19T01:37:11;10.60;99.90
5940;DHT22;2995;-31.998;115.906;2023-06-19T01:39:46;10.80;99.90
5940;DHT22;2995;-31.998;115.906;2023-06-19T01:42:18;11.00;99.90
5940;DHT22;2995;-31.998;115.906;2023-06-19T01:44:50;11.20;99.90
5940;DHT22;2995;-31.998;115.906;2023-06-19T01:47:21;11.30;99.90
5940;DHT22;2995;-31.998;115.906;2023-06-19T01:49:53;11.40;99.90
5940;DHT22;2995;-31.998;115.906;2023-06-19T01:52:25;11.50;99.90
5940;DHT22;2995;-31.998;115.906;2023-06-19T01:54:58;11.50;99.90
5940;DHT22;2995;-31.998;115.906;2023-06-19T01:57:30;11.60;99.90
5940;DHT22;2995;-31.998;115.906;2023-06-19T02:00:02;11.80;99.90
5940;DHT22;2995;-31.998;115.906;2023-06-19T02:02:35;11.90;99.90
5940;DHT22;2995;-31.998;115.906;2023-06-19T02:05:07;12.00;99.90
5940;DHT22;2995;-31.998;115.906;2023-06-19T02:07:39;12.10;99.90
5940;DHT22;2995;-31.998;115.906;2023-06-19T02:10:12;12.30;99.90
5940;DHT22;2995;-31.998;115.906;2023-06-19T02:12:43;12.40;99.90
5940;DHT22;2995;-31.998;115.906;2023-06-19T02:15:15;12.50;99.90
5940;DHT22;2995;-31.998;115.906;2023-06-19T02:17:46;12.60;99.90
5940;DHT22;2995;-31.998;115.906;2023-06-19T02:20:17;12.80;99.90
5940;DHT22;2995;-31.998;115.906;2023-06-19T02:22:48;12.80;99.90
5940;DHT22;2995;-31.998;115.906;2023-06-19T02:25:21;12.90;99.90
5940;DHT22;2995;-31.998;115.906;2023-06-19T02:27:53;13.10;99.90
5940;DHT22;2995;-31.998;115.906;2023-06-19T02:30:24;13.30;99.90
5940;DHT22;2995;-31.998;115.906;2023-06-19T02:32:55;13.30;99.90
5940;DHT22;2995;-31.998;115.906;2023-06-19T02:35:27;13.40;99.90
5940;DHT22;2995;-31.998;115.906;2023-06-19T02:37:58;13.40;99.90
5940;DHT22;2995;-31.998;115.906;2023-06-19T02:40:31;13.30;99.90
5940;DHT22;2995;-31.998;115.906;2023-06-19T02:43:02;13.30;99.90
5940;DHT22;2995;-31.998;115.906;2023-06-19T02:45:34;13.30;99.90
5940;DHT22;2995;-31.998;115.906;2023-06-19T02:48:06;13.40;99.90
5940;DHT22;2995;-31.998;115.906;2023-06-19T02:50:38;13.40;99.90
5940;DHT22;2995;-31.998;115.906;2023-06-19T02:53:09;13.50;99.90
5940;DHT22;2995;-31.998;115.906;2023-06-19T02:55:42;13.80;99.90
5940;DHT22;2995;-31.998;115.906;2023-06-19T02:58:13;14.00;99.90
5940;DHT22;2995;-31.998;115.906;2023-06-19T03:00:45;14.20;99.90
5940;DHT22;2995;-31.998;115.906;2023-06-19T03:03:16;14.30;99.90
5940;DHT22;2995;-31.998;115.906;2023-06-19T03:05:47;14.40;99.90
5940;DHT22;2995;-31.998;115.906;2023-06-19T03:08:19;14.40;99.90
5940;DHT22;2995;-31.998;115.906;2023-06-19T03:10:52;14.40;99.90
5940;DHT22;2995;-31.998;115.906;2023-06-19T03:13:23;14.30;99.90
5940;DHT22;2995;-31.998;115.906;2023-06-19T03:15:54;14.20;99.90
5940;DHT22;2995;-31.998;115.906;2023-06-19T03:18:25;14.30;99.90
5940;DHT22;2995;-31.998;115.906;2023-06-19T03:20:57;14.30;99.90
5940;DHT22;2995;-31.998;115.906;2023-06-19T03:23:28;14.40;99.90
5940;DHT22;2995;-31.998;115.906;2023-06-19T03:26:01;14.30;99.90
5940;DHT22;2995;-31.998;115.906;2023-06-19T03:28:32;14.20;99.90
5940;DHT22;2995;-31.998;115.906;2023-06-19T03:31:04;14.10;99.90
5940;DHT22;2995;-31.998;115.906;2023-06-19T03:33:35;14.20;99.90
5940;DHT22;2995;-31.998;115.906;2023-06-19T03:36:07;14.30;99.90
5940;DHT22;2995;-31.998;115.906;2023-06-19T03:38:38;14.40;99.90
5940;DHT22;2995;-31.998;115.906;2023-06-19T03:41:11;14.30;99.90
5940;DHT22;2995;-31.998;115.906;2023-06-19T03:43:42;14.50;99.90
5940;DHT22;2995;-31.998;115.906;2023-06-19T03:46:14;14.50;99.90
5940;DHT22;2995;-31.998;115.906;2023-06-19T03:48:45;14.70;99.90
5940;DHT22;2995;-31.998;115.906;2023-06-19T03:51:16;14.70;99.90
5940;DHT22;2995;-31.998;115.906;2023-06-19T03:53:47;14.70;99.90
5940;DHT22;2995;-31.998;115.906;2023-06-19T03:56:21;14.80;99.90
5940;DHT22;2995;-31.998;115.906;2023-06-19T03:58:52;14.70;99.90
5940;DHT22;2995;-31.998;115.906;2023-06-19T04:01:24;14.70;99.90
5940;DHT22;2995;-31.998;115.906;2023-06-19T04:03:55;14.90;99.90
5940;DHT22;2995;-31.998;115.906;2023-06-19T04:06:27;15.00;99.90
5940;DHT22;2995;-31.998;115.906;2023-06-19T04:08:58;15.00;99.90
5940;DHT22;2995;-31.998;115.906;2023-06-19T04:11:31;15.00;99.90
5940;DHT22;2995;-31.998;115.906;2023-06-19T04:14:03;15.00;99.90
5940;DHT22;2995;-31.998;115.906;2023-06-19T04:16:34;15.00;99.90
5940;DHT22;2995;-31.998;115.906;2023-06-19T04:19:05;15.10;99.90
5940;DHT22;2995;-31.998;115.906;2023-06-19T04:21:36;15.20;99.90
5940;DHT22;2995;-31.998;115.906;2023-06-19T04:24:08;15.50;99.90
5940;DHT22;2995;-31.998;115.906;2023-06-19T04:26:41;15.50;99.90
5940;DHT22;2995;-31.998;115.906;2023-06-19T04:29:12;15.50;99.90
5940;DHT22;2995;-31.998;115.906;2023-06-19T04:31:45;15.50;99.90
5940;DHT22;2995;-31.998;115.906;2023-06-19T04:34:17;15.50;99.90
5940;DHT22;2995;-31.998;115.906;2023-06-19T04:36:49;15.40;99.90
5940;DHT22;2995;-31.998;115.906;2023-06-19T04:39:21;15.30;99.90
5940;DHT22;2995;-31.998;115.906;2023-06-19T04:41:54;15.40;99.90
5940;DHT22;2995;-31.998;115.906;2023-06-19T04:44:25;15.50;99.90
5940;DHT22;2995;-31.998;115.906;2023-06-19T04:47:01;15.50;99.90
5940;DHT22;2995;-31.998;115.906;2023-06-19T04:49:33;15.50;99.90
5940;DHT22;2995;-31.998;115.906;2023-06-19T04:52:04;15.50;99.90
5940;DHT22;2995;-31.998;115.906;2023-06-19T04:54:36;15.40;99.90
5940;DHT22;2995;-31.998;115.906;2023-06-19T04:57:09;15.40;99.90
5940;DHT22;2995;-31.998;115.906;2023-06-19T04:59:41;15.50;99.90
5940;DHT22;2995;-31.998;115.906;2023-06-19T05:02:13;15.80;99.90
5940;DHT22;2995;-31.998;115.906;2023-06-19T05:04:44;15.80;99.90
5940;DHT22;2995;-31.998;115.906;2023-06-19T05:07:15;15.80;99.90
5940;DHT22;2995;-31.998;115.906;2023-06-19T05:09:46;15.70;99.90
5940;DHT22;2995;-31.998;115.906;2023-06-19T05:12:20;15.60;99.90
5940;DHT22;2995;-31.998;115.906;2023-06-19T05:14:51;15.60;99.90
5940;DHT22;2995;-31.998;115.906;2023-06-19T05:17:22;15.60;99.90
5940;DHT22;2995;-31.998;115.906;2023-06-19T05:19:53;15.70;99.90
5940;DHT22;2995;-31.998;115.906;2023-06-19T05:22:25;15.80;99.90
5940;DHT22;2995;-31.998;115.906;2023-06-19T05:24:56;15.70;99.90
5940;DHT22;2995;-31.998;115.906;2023-06-19T05:27:29;15.70;99.90
5940;DHT22;2995;-31.998;115.906;2023-06-19T05:30:01;15.70;99.90
5940;DHT22;2995;-31.998;115.906;2023-06-19T05:32:32;15.70;99.90
5940;DHT22;2995;-31.998;115.906;2023-06-19T05:35:03;15.60;99.90
5940;DHT22;2995;-31.998;115.906;2023-06-19T05:37:34;15.60;99.90
5940;DHT22;2995;-31.998;115.906;2023-06-19T05:40:07;15.80;99.90
5940;DHT22;2995;-31.998;115.906;2023-06-19T05:42:41;15.70;99.90
5940;DHT22;2995;-31.998;115.906;2023-06-19T05:45:12;15.70;99.90
5940;DHT22;2995;-31.998;115.906;2023-06-19T05:47:44;15.60;99.90
5940;DHT22;2995;-31.998;115.906;2023-06-19T05:50:15;15.60;99.90
5940;DHT22;2995;-31.998;115.906;2023-06-19T05:52:46;15.70;99.90
5940;DHT22;2995;-31.998;115.906;2023-06-19T05:55:18;15.70;99.90
5940;DHT22;2995;-31.998;115.906;2023-06-19T05:57:51;15.90;99.90
5940;DHT22;2995;-31.998;115.906;2023-06-19T06:00:22;15.70;99.90
5940;DHT22;2995;-31.998;115.906;2023-06-19T06:02:53;15.80;99.90
5940;DHT22;2995;-31.998;115.906;2023-06-19T06:05:27;15.80;99.90
5940;DHT22;2995;-31.998;115.906;2023-06-19T06:07:58;16.00;99.90
5940;DHT22;2995;-31.998;115.906;2023-06-19T06:10:30;16.00;99.90
5940;DHT22;2995;-31.998;115.906;2023-06-19T06:13:03;16.30;99.90
5940;DHT22;2995;-31.998;115.906;2023-06-19T06:15:34;16.40;99.90
5940;DHT22;2995;-31.998;115.906;2023-06-19T06:18:05;16.60;99.90
5940;DHT22;2995;-31.998;115.906;2023-06-19T06:20:37;16.60;99.90
5940;DHT22;2995;-31.998;115.906;2023-06-19T06:23:08;16.50;99.90
5940;DHT22;2995;-31.998;115.906;2023-06-19T06:25:40;16.30;99.90
5940;DHT22;2995;-31.998;115.906;2023-06-19T06:28:13;16.40;99.90
5940;DHT22;2995;-31.998;115.906;2023-06-19T06:30:44;16.30;99.90
5940;DHT22;2995;-31.998;115.906;2023-06-19T06:33:16;16.30;99.90
5940;DHT22;2995;-31.998;115.906;2023-06-19T06:35:47;16.20;99.90
5940;DHT22;2995;-31.998;115.906;2023-06-19T06:38:18;16.10;99.90
5940;DHT22;2995;-31.998;115.906;2023-06-19T06:40:50;16.00;99.90
5940;DHT22;2995;-31.998;115.906;2023-06-19T06:43:23;16.10;99.90
5940;DHT22;2995;-31.998;115.906;2023-06-19T06:45:54;16.10;99.90
5940;DHT22;2995;-31.998;115.906;2023-06-19T06:48:25;16.20;99.90
5940;DHT22;2995;-31.998;115.906;2023-06-19T06:50:56;16.10;99.90
5940;DHT22;2995;-31.998;115.906;2023-06-19T06:53:29;16.10;99.90
5940;DHT22;2995;-31.998;115.906;2023-06-19T06:56:01;16.00;99.90
5940;DHT22;2995;-31.998;115.906;2023-06-19T06:58:34;15.90;99.90
5940;DHT22;2995;-31.998;115.906;2023-06-19T07:01:06;15.90;99.90
5940;DHT22;2995;-31.998;115.906;2023-06-19T07:03:37;15.90;99.90
5940;DHT22;2995;-31.998;115.906;2023-06-19T07:06:08;15.90;99.90
5940;DHT22;2995;-31.998;115.906;2023-06-19T07:08:40;15.90;99.90
5940;DHT22;2995;-31.998;115.906;2023-06-19T07:11:11;15.80;99.90
5940;DHT22;2995;-31.998;115.906;2023-06-19T07:13:44;15.60;99.90
5940;DHT22;2995;-31.998;115.906;2023-06-19T07:16:16;15.70;99.90
5940;DHT22;2995;-31.998;115.906;2023-06-19T07:18:47;15.70;99.90
5940;DHT22;2995;-31.998;115.906;2023-06-19T07:21:18;15.70;99.90
5940;DHT22;2995;-31.998;115.906;2023-06-19T07:23:50;15.60;99.90
5940;DHT22;2995;-31.998;115.906;2023-06-19T07:26:22;15.50;99.90
5940;DHT22;2995;-31.998;115.906;2023-06-19T07:28:56;15.40;99.90
5940;DHT22;2995;-31.998;115.906;2023-06-19T07:31:27;15.40;99.90
5940;DHT22;2995;-31.998;115.906;2023-06-19T07:33:58;15.40;99.90
5940;DHT22;2995;-31.998;115.906;2023-06-19T07:36:30;15.30;99.90
5940;DHT22;2995;-31.998;115.906;2023-06-19T07:39:01;15.30;99.90
5940;DHT22;2995;-31.998;115.906;2023-06-19T07:41:32;15.30;99.90
5940;DHT22;2995;-31.998;115.906;2023-06-19T07:44:05;15.40;99.90
5940;DHT22;2995;-31.998;115.906;2023-06-19T07:46:36;15.30;99.90
5940;DHT22;2995;-31.998;115.906;2023-06-19T07:49:08;15.30;99.90
5940;DHT22;2995;-31.998;115.906;2023-06-19T07:51:39;15.30;99.90
5940;DHT22;2995;-31.998;115.906;2023-06-19T07:54:10;15.30;99.90
5940;DHT22;2995;-31.998;115.906;2023-06-19T07:56:41;15.20;99.90
5940;DHT22;2995;-31.998;115.906;2023-06-19T07:59:15;15.20;99.90
5940;DHT22;2995;-31.998;115.906;2023-06-19T08:01:46;15.10;99.90
5940;DHT22;2995;-31.998;115.906;2023-06-19T08:04:17;15.10;99.90
5940;DHT22;2995;-31.998;115.906;2023-06-19T08:06:50;15.20;99.90
5940;DHT22;2995;-31.998;115.906;2023-06-19T08:09:23;15.10;99.90
5940;DHT22;2995;-31.998;115.906;2023-06-19T08:11:56;15.00;99.90
5940;DHT22;2995;-31.998;115.906;2023-06-19T08:14:29;15.00;99.90
5940;DHT22;2995;-31.998;115.906;2023-06-19T08:17:01;14.90;99.90
5940;DHT22;2995;-31.998;115.906;2023-06-19T08:19:33;14.90;99.90
5940;DHT22;2995;-31.998;115.906;2023-06-19T08:22:07;14.80;99.90
5940;DHT22;2995;-31.998;115.906;2023-06-19T08:24:38;14.80;99.90
5940;DHT22;2995;-31.998;115.906;2023-06-19T08:27:09;14.80;99.90
5940;DHT22;2995;-31.998;115.906;2023-06-19T08:29:43;14.80;99.90
5940;DHT22;2995;-31.998;115.906;2023-06-19T08:32:14;14.80;99.90
5940;DHT22;2995;-31.998;115.906;2023-06-19T08:34:45;14.80;99.90
5940;DHT22;2995;-31.998;115.906;2023-06-19T08:37:16;14.80;99.90
5940;DHT22;2995;-31.998;115.906;2023-06-19T08:39:48;14.70;99.90
5940;DHT22;2995;-31.998;115.906;2023-06-19T08:42:21;14.60;99.90
5940;DHT22;2995;-31.998;115.906;2023-06-19T08:44:54;14.50;99.90
5940;DHT22;2995;-31.998;115.906;2023-06-19T08:47:30;14.50;99.90
5940;DHT22;2995;-31.998;115.906;2023-06-19T08:50:02;14.50;99.90
5940;DHT22;2995;-31.998;115.906;2023-06-19T08:52:34;14.40;99.90
5940;DHT22;2995;-31.998;115.906;2023-06-19T08:55:05;14.30;99.90
5940;DHT22;2995;-31.998;115.906;2023-06-19T08:57:38;14.20;99.90
5940;DHT22;2995;-31.998;115.906;2023-06-19T09:00:25;14.20;99.90
5940;DHT22;2995;-31.998;115.906;2023-06-19T09:03:01;14.10;99.90
5940;DHT22;2995;-31.998;115.906;2023-06-19T09:05:34;14.10;99.90
5940;DHT22;2995;-31.998;115.906;2023-06-19T09:08:18;14.00;99.90
5940;DHT22;2995;-31.998;115.906;2023-06-19T09:10:59;13.90;99.90
5940;DHT22;2995;-31.998;115.906;2023-06-19T09:13:31;13.80;99.90
5940;DHT22;2995;-31.998;115.906;2023-06-19T09:16:05;13.80;99.90
5940;DHT22;2995;-31.998;115.906;2023-06-19T09:18:44;13.60;99.90
5940;DHT22;2995;-31.998;115.906;2023-06-19T09:21:19;13.50;99.90
5940;DHT22;2995;-31.998;115.906;2023-06-19T09:23:51;13.50;99.90
5940;DHT22;2995;-31.998;115.906;2023-06-19T09:26:22;13.40;99.90
5940;DHT22;2995;-31.998;115.906;2023-06-19T09:28:54;13.30;99.90
5940;DHT22;2995;-31.998;115.906;2023-06-19T09:31:35;13.20;99.90
5940;DHT22;2995;-31.998;115.906;2023-06-19T09:34:07;13.10;99.90
5940;DHT22;2995;-31.998;115.906;2023-06-19T09:36:38;13.00;99.90
5940;DHT22;2995;-31.998;115.906;2023-06-19T09:39:10;12.90;99.90
5940;DHT22;2995;-31.998;115.906;2023-06-19T09:41:42;12.80;99.90
5940;DHT22;2995;-31.998;115.906;2023-06-19T09:44:16;12.80;99.90
5940;DHT22;2995;-31.998;115.906;2023-06-19T09:46:54;12.70;99.90
5940;DHT22;2995;-31.998;115.906;2023-06-19T09:49:28;12.60;99.90
5940;DHT22;2995;-31.998;115.906;2023-06-19T09:52:03;12.50;99.90
5940;DHT22;2995;-31.998;115.906;2023-06-19T09:54:35;12.50;99.90
5940;DHT22;2995;-31.998;115.906;2023-06-19T09:57:08;12.40;99.90
5940;DHT22;2995;-31.998;115.906;2023-06-19T09:59:41;12.30;99.90
5940;DHT22;2995;-31.998;115.906;2023-06-19T10:02:16;12.20;99.90
5940;DHT22;2995;-31.998;115.906;2023-06-19T10:04:51;12.10;99.90
5940;DHT22;2995;-31.998;115.906;2023-06-19T10:07:23;12.10;99.90
5940;DHT22;2995;-31.998;115.906;2023-06-19T10:10:00;12.00;99.90
5940;DHT22;2995;-31.998;115.906;2023-06-19T10:12:37;12.10;99.90
5940;DHT22;2995;-31.998;115.906;2023-06-19T10:15:18;12.20;99.90
5940;DHT22;2995;-31.998;115.906;2023-06-19T10:17:53;12.00;99.90
5940;DHT22;2995;-31.998;115.906;2023-06-19T10:20:26;12.00;99.90
5940;DHT22;2995;-31.998;115.906;2023-06-19T10:23:03;11.80;99.90
5940;DHT22;2995;-31.998;115.906;2023-06-19T10:25:37;11.80;99.90
5940;DHT22;2995;-31.998;115.906;2023-06-19T10:28:18;11.70;99.90
5940;DHT22;2995;-31.998;115.906;2023-06-19T10:30:57;11.60;99.90
5940;DHT22;2995;-31.998;115.906;2023-06-19T10:33:32;11.50;99.90
5940;DHT22;2995;-31.998;115.906;2023-06-19T10:36:15;11.50;99.90
5940;DHT22;2995;-31.998;115.906;2023-06-19T10:38:46;11.50;99.90
5940;DHT22;2995;-31.998;115.906;2023-06-19T10:41:18;11.40;99.90
5940;DHT22;2995;-31.998;115.906;2023-06-19T10:43:55;11.40;99.90
5940;DHT22;2995;-31.998;115.906;2023-06-19T10:46:29;11.30;99.90
5940;DHT22;2995;-31.998;115.906;2023-06-19T10:49:04;11.20;99.90
5940;DHT22;2995;-31.998;115.906;2023-06-19T10:51:38;11.20;99.90
5940;DHT22;2995;-31.998;115.906;2023-06-19T10:54:11;11.10;99.90
5940;DHT22;2995;-31.998;115.906;2023-06-19T10:56:42;11.10;99.90
5940;DHT22;2995;-31.998;115.906;2023-06-19T10:59:16;11.10;99.90
5940;DHT22;2995;-31.998;115.906;2023-06-19T11:01:48;11.00;99.90
5940;DHT22;2995;-31.998;115.906;2023-06-19T11:04:22;11.00;99.90
5940;DHT22;2995;-31.998;115.906;2023-06-19T11:06:53;10.90;99.90
5940;DHT22;2995;-31.998;115.906;2023-06-19T11:09:24;11.00;99.90
5940;DHT22;2995;-31.998;115.906;2023-06-19T11:11:56;10.90;99.90
5940;DHT22;2995;-31.998;115.906;2023-06-19T11:14:30;10.90;99.90
5940;DHT22;2995;-31.998;115.906;2023-06-19T11:17:07;10.80;99.90
5940;DHT22;2995;-31.998;115.906;2023-06-19T11:19:41;10.80;99.90
5940;DHT22;2995;-31.998;115.906;2023-06-19T11:22:12;10.80;99.90
5940;DHT22;2995;-31.998;115.906;2023-06-19T11:24:47;10.70;99.90
5940;DHT22;2995;-31.998;115.906;2023-06-19T11:27:21;10.70;99.90
5940;DHT22;2995;-31.998;115.906;2023-06-19T11:30:00;10.60;99.90
5940;DHT22;2995;-31.998;115.906;2023-06-19T11:32:33;10.60;99.90
5940;DHT22;2995;-31.998;115.906;2023-06-19T11:35:12;10.70;99.90
5940;DHT22;2995;-31.998;115.906;2023-06-19T11:37:44;10.60;99.90
5940;DHT22;2995;-31.998;115.906;2023-06-19T11:40:16;10.60;99.90
5940;DHT22;2995;-31.998;115.906;2023-06-19T11:42:53;10.50;99.90
5940;DHT22;2995;-31.998;115.906;2023-06-19T11:45:25;10.50;99.90
5940;DHT22;2995;-31.998;115.906;2023-06-19T11:47:56;10.40;99.90
5940;DHT22;2995;-31.998;115.906;2023-06-19T11:50:31;10.40;99.90
5940;DHT22;2995;-31.998;115.906;2023-06-19T11:53:03;10.50;99.90
5940;DHT22;2995;-31.998;115.906;2023-06-19T11:55:34;10.50;99.90
5940;DHT22;2995;-31.998;115.906;2023-06-19T11:58:06;10.70;99.90
5940;DHT22;2995;-31.998;115.906;2023-06-19T12:00:38;10.70;99.90
5940;DHT22;2995;-31.998;115.906;2023-06-19T12:03:09;10.60;99.90
5940;DHT22;2995;-31.998;115.906;2023-06-19T12:05:43;10.60;99.90
5940;DHT22;2995;-31.998;115.906;2023-06-19T12:08:14;10.60;99.90
5940;DHT22;2995;-31.998;115.906;2023-06-19T12:10:45;10.50;99.90
5940;DHT22;2995;-31.998;115.906;2023-06-19T12:13:17;10.40;99.90
5940;DHT22;2995;-31.998;115.906;2023-06-19T12:15:48;10.30;99.90
5940;DHT22;2995;-31.998;115.906;2023-06-19T12:18:19;10.20;99.90
5940;DHT22;2995;-31.998;115.906;2023-06-19T12:20:53;10.20;99.90
5940;DHT22;2995;-31.998;115.906;2023-06-19T12:23:24;10.30;99.90
5940;DHT22;2995;-31.998;115.906;2023-06-19T12:25:55;10.20;99.90
5940;DHT22;2995;-31.998;115.906;2023-06-19T12:28:27;10.20;99.90
5940;DHT22;2995;-31.998;115.906;2023-06-19T12:30:58;10.10;99.90
5940;DHT22;2995;-31.998;115.906;2023-06-19T12:33:31;10.10;99.90
5940;DHT22;2995;-31.998;115.906;2023-06-19T12:36:07;10.20;99.90
5940;DHT22;2995;-31.998;115.906;2023-06-19T12:38:38;10.20;99.90
5940;DHT22;2995;-31.998;115.906;2023-06-19T12:41:09;10.20;99.90
5940;DHT22;2995;-31.998;115.906;2023-06-19T12:43:41;10.10;99.90
5940;DHT22;2995;-31.998;115.906;2023-06-19T12:46:12;10.10;99.90
5940;DHT22;2995;-31.998;115.906;2023-06-19T12:48:43;10.20;99.90
5940;DHT22;2995;-31.998;115.906;2023-06-19T12:51:21;10.20;99.90
5940;DHT22;2995;-31.998;115.906;2023-06-19T12:53:52;10.20;99.90
5940;DHT22;2995;-31.998;115.906;2023-06-19T12:56:23;10.20;99.90
5940;DHT22;2995;-31.998;115.906;2023-06-19T12:58:54;10.40;99.90
5940;DHT22;2995;-31.998;115.906;2023-06-19T13:01:26;10.40;99.90
5940;DHT22;2995;-31.998;115.906;2023-06-19T13:03:57;10.50;99.90
5940;DHT22;2995;-31.998;115.906;2023-06-19T13:06:30;10.50;99.90
5940;DHT22;2995;-31.998;115.906;2023-06-19T13:09:02;10.50;99.90
5940;DHT22;2995;-31.998;115.906;2023-06-19T13:11:34;10.50;99.90
5940;DHT22;2995;-31.998;115.906;2023-06-19T13:14:06;10.40;99.90
5940;DHT22;2995;-31.998;115.906;2023-06-19T13:16:37;10.30;99.90
5940;DHT22;2995;-31.998;115.906;2023-06-19T13:19:08;10.40;99.90
5940;DHT22;2995;-31.998;115.906;2023-06-19T13:21:42;10.40;99.90
5940;DHT22;2995;-31.998;115.906;2023-06-19T13:24:13;10.30;99.90
5940;DHT22;2995;-31.998;115.906;2023-06-19T13:26:45;10.30;99.90
5940;DHT22;2995;-31.998;115.906;2023-06-19T13:29:16;10.30;99.90
5940;DHT22;2995;-31.998;115.906;2023-06-19T13:31:48;10.20;99.90
5940;DHT22;2995;-31.998;115.906;2023-06-19T13:34:19;10.20;99.90
5940;DHT22;2995;-31.998;115.906;2023-06-19T13:36:52;10.20;99.90
5940;DHT22;2995;-31.998;115.906;2023-06-19T13:39:24;10.20;99.90
5940;DHT22;2995;-31.998;115.906;2023-06-19T13:41:55;10.20;99.90
5940;DHT22;2995;-31.998;115.906;2023-06-19T13:44:29;10.10;99.90
5940;DHT22;2995;-31.998;115.906;2023-06-19T13:47:00;10.10;99.90
5940;DHT22;2995;-31.998;115.906;2023-06-19T13:49:31;10.10;99.90
5940;DHT22;2995;-31.998;115.906;2023-06-19T13:52:05;10.10;99.90
5940;DHT22;2995;-31.998;115.906;2023-06-19T13:54:37;10.00;99.90
5940;DHT22;2995;-31.998;115.906;2023-06-19T13:57:08;10.00;99.90
5940;DHT22;2995;-31.998;115.906;2023-06-19T13:59:40;10.00;99.90
5940;DHT22;2995;-31.998;115.906;2023-06-19T14:02:11;9.70;99.90
5940;DHT22;2995;-31.998;115.906;2023-06-19T14:04:42;9.80;99.90
5940;DHT22;2995;-31.998;115.906;2023-06-19T14:07:15;9.90;99.90
5940;DHT22;2995;-31.998;115.906;2023-06-19T14:09:50;9.90;99.90
5940;DHT22;2995;-31.998;115.906;2023-06-19T14:12:21;9.90;99.90
5940;DHT22;2995;-31.998;115.906;2023-06-19T14:14:53;9.90;99.90
5940;DHT22;2995;-31.998;115.906;2023-06-19T14:17:24;9.90;99.90
5940;DHT22;2995;-31.998;115.906;2023-06-19T14:19:56;9.90;99.90
5940;DHT22;2995;-31.998;115.906;2023-06-19T14:22:29;9.80;99.90
5940;DHT22;2995;-31.998;115.906;2023-06-19T14:25:01;9.80;99.90
5940;DHT22;2995;-31.998;115.906;2023-06-19T14:27:32;9.70;99.90
5940;DHT22;2995;-31.998;115.906;2023-06-19T14:30:05;9.70;99.90
5940;DHT22;2995;-31.998;115.906;2023-06-19T14:32:37;9.80;99.90
5940;DHT22;2995;-31.998;115.906;2023-06-19T14:35:09;9.70;99.90
5940;DHT22;2995;-31.998;115.906;2023-06-19T14:37:42;9.80;99.90
5940;DHT22;2995;-31.998;115.906;2023-06-19T14:40:13;9.80;99.90
5940;DHT22;2995;-31.998;115.906;2023-06-19T14:42:46;9.80;99.90
5940;DHT22;2995;-31.998;115.906;2023-06-19T14:45:17;9.60;99.90
5940;DHT22;2995;-31.998;115.906;2023-06-19T14:47:48;9.70;99.90
5940;DHT22;2995;-31.998;115.906;2023-06-19T14:50:20;9.70;99.90
5940;DHT22;2995;-31.998;115.906;2023-06-19T14:52:53;9.50;99.90
5940;DHT22;2995;-31.998;115.906;2023-06-19T14:55:25;9.60;99.90
5940;DHT22;2995;-31.998;115.906;2023-06-19T14:57:56;9.50;99.90
5940;DHT22;2995;-31.998;115.906;2023-06-19T15:00:27;9.60;99.90
5940;DHT22;2995;-31.998;115.906;2023-06-19T15:02:58;9.60;99.90
5940;DHT22;2995;-31.998;115.906;2023-06-19T15:05:30;9.50;99.90
5940;DHT22;2995;-31.998;115.906;2023-06-19T15:08:03;9.50;99.90
5940;DHT22;2995;-31.998;115.906;2023-06-19T15:10:35;9.50;99.90
5940;DHT22;2995;-31.998;115.906;2023-06-19T15:13:07;9.50;99.90
5940;DHT22;2995;-31.998;115.906;2023-06-19T15:15:38;9.40;99.90
5940;DHT22;2995;-31.998;115.906;2023-06-19T15:18:10;9.40;99.90
5940;DHT22;2995;-31.998;115.906;2023-06-19T15:20:41;9.50;99.90
5940;DHT22;2995;-31.998;115.906;2023-06-19T15:23:14;9.40;99.90
5940;DHT22;2995;-31.998;115.906;2023-06-19T15:25:46;9.30;99.90
5940;DHT22;2995;-31.998;115.906;2023-06-19T15:28:20;9.30;99.90
5940;DHT22;2995;-31.998;115.906;2023-06-19T15:30:51;9.40;99.90
5940;DHT22;2995;-31.998;115.906;2023-06-19T15:33:23;9.40;99.90
5940;DHT22;2995;-31.998;115.906;2023-06-19T15:35:54;9.40;99.90
5940;DHT22;2995;-31.998;115.906;2023-06-19T15:38:27;9.40;99.90
5940;DHT22;2995;-31.998;115.906;2023-06-19T15:40:59;9.40;99.90
5940;DHT22;2995;-31.998;115.906;2023-06-19T15:43:31;9.30;99.90
5940;DHT22;2995;-31.998;115.906;2023-06-19T15:46:02;9.40;99.90
5940;DHT22;2995;-31.998;115.906;2023-06-19T15:48:36;9.40;99.90
5940;DHT22;2995;-31.998;115.906;2023-06-19T15:51:07;9.40;99.90
5940;DHT22;2995;-31.998;115.906;2023-06-19T15:53:41;9.40;99.90